createdAt,value
2023-02-05T00:01:25.515Z,0.90
2023-02-05T00:06:31.776Z,1.50
2023-02-05T00:11:35.581Z,0.82
2023-02-05T00:16:39.225Z,1.00
2023-02-05T00:21:44.559Z,0.70
2023-02-05T00:26:48.238Z,0.60
2023-02-05T00:31:54.029Z,1.08
2023-02-05T00:36:59.355Z,0.80
2023-02-05T00:42:02.972Z,1.00
2023-02-05T00:47:06.607Z,0.95
2023-02-05T00:52:11.954Z,0.60
2023-02-05T00:57:15.630Z,0.90
2023-02-05T01:02:19.787Z,1.02
2023-02-05T01:07:25.083Z,0.47
2023-02-05T01:12:28.802Z,1.30
2023-02-05T01:17:32.451Z,0.80
2023-02-05T01:22:38.091Z,0.88
2023-02-05T01:27:41.823Z,0.90
2023-02-05T01:32:45.496Z,1.50
2023-02-05T01:37:50.849Z,1.50
2023-02-05T01:42:54.460Z,1.23
2023-02-05T01:47:59.615Z,1.40
2023-02-05T01:53:09.460Z,1.40
2023-02-05T01:58:14.191Z,1.67
2023-02-05T02:03:18.903Z,1.63
2023-02-05T02:08:24.230Z,2.10
2023-02-05T02:13:30.409Z,1.60
2023-02-05T02:23:50.094Z,1.58
2023-02-05T02:28:57.742Z,1.70
2023-02-05T02:34:09.797Z,1.90
2023-02-05T02:39:17.522Z,1.50
2023-02-05T02:44:29.443Z,2.80
2023-02-05T02:49:37.477Z,2.40
2023-02-05T02:54:43.286Z,2.30
2023-02-05T02:59:51.723Z,1.33
2023-02-05T03:04:58.045Z,1.90
2023-02-05T03:10:04.778Z,2.47
2023-02-05T03:15:11.943Z,2.33
2023-02-05T03:20:21.754Z,2.47
2023-02-05T03:25:29.447Z,2.72
2023-02-05T03:30:42.015Z,2.15
2023-02-05T03:35:55.468Z,2.13
2023-02-05T03:41:08.545Z,2.17
2023-02-05T03:46:21.095Z,2.70
2023-02-05T03:51:32.493Z,2.25
2023-02-05T03:56:44.413Z,2.53
2023-02-05T04:01:49.904Z,2.10
2023-02-05T04:06:54.186Z,2.33
2023-02-05T04:11:57.822Z,2.88
2023-02-05T04:17:03.113Z,3.28
2023-02-05T04:22:06.766Z,3.60
2023-02-05T04:27:10.393Z,3.30
2023-02-05T04:32:15.904Z,4.07
2023-02-05T04:37:19.529Z,4.00
2023-02-05T04:42:23.791Z,3.63
2023-02-05T04:47:31.376Z,3.35
2023-02-05T04:52:35.000Z,3.78
2023-02-05T04:57:38.756Z,3.40
2023-02-05T05:02:44.073Z,3.80
2023-02-05T05:07:47.707Z,3.00
2023-02-05T05:12:51.298Z,4.10
2023-02-05T05:17:56.595Z,4.40
2023-02-05T05:23:01.713Z,3.27
2023-02-05T05:28:05.612Z,3.72
2023-02-05T05:33:11.530Z,3.30
2023-02-05T05:38:15.170Z,4.53
2023-02-05T05:43:21.334Z,3.38
2023-02-05T05:53:29.806Z,3.15
2023-02-05T05:58:33.413Z,3.10
2023-02-05T06:03:38.698Z,2.80
2023-02-05T06:08:42.340Z,2.90
2023-02-05T06:13:45.979Z,2.80
2023-02-05T06:18:51.270Z,3.22
2023-02-05T06:23:54.934Z,2.33
2023-02-05T06:28:58.574Z,2.60
2023-02-05T06:34:03.881Z,3.35
2023-02-05T06:39:07.510Z,2.57
2023-02-05T06:44:11.143Z,2.70
2023-02-05T06:49:16.585Z,2.50
2023-02-05T06:54:20.210Z,3.47
2023-02-05T06:59:23.947Z,2.80
2023-02-05T07:04:29.296Z,3.15
2023-02-05T07:09:32.995Z,2.70
2023-02-05T07:14:38.539Z,3.53
2023-02-05T07:19:44.638Z,3.17
2023-02-05T07:24:48.438Z,2.83
2023-02-05T07:29:52.060Z,3.28
2023-02-05T07:34:57.375Z,3.63
2023-02-05T07:40:01.042Z,3.13
2023-02-05T07:45:05.007Z,3.72
2023-02-05T07:50:10.694Z,3.35
2023-02-05T07:55:14.303Z,3.13
2023-02-05T08:00:18.287Z,3.63
2023-02-05T08:05:23.544Z,3.90
2023-02-05T08:10:27.407Z,3.37
2023-02-05T08:15:31.018Z,2.90
2023-02-05T08:20:36.322Z,1.92
2023-02-05T08:25:40.328Z,2.27
2023-02-05T08:30:44.060Z,2.40
2023-02-05T08:35:49.346Z,2.00
2023-02-05T08:40:52.976Z,2.53
2023-02-05T08:45:56.667Z,2.40
2023-02-05T08:51:01.985Z,2.33
2023-02-05T08:56:05.913Z,2.93
2023-02-05T09:01:11.211Z,2.80
2023-02-05T09:06:17.367Z,2.67
2023-02-05T09:11:23.058Z,2.42
2023-02-05T09:16:27.249Z,2.70
2023-02-05T09:21:32.600Z,3.20
2023-02-05T09:26:36.322Z,3.63
2023-02-05T09:31:42.324Z,2.95
2023-02-05T09:36:47.719Z,3.05
2023-02-05T09:42:00.486Z,3.10
2023-02-05T09:47:08.921Z,3.13
2023-02-05T09:52:26.384Z,3.35
2023-02-05T09:57:34.860Z,3.03
2023-02-05T10:02:46.070Z,3.10
2023-02-05T10:07:59.167Z,2.97
2023-02-05T10:13:28.177Z,3.08
2023-02-05T10:18:42.312Z,3.00
2023-02-05T10:24:07.114Z,3.13
2023-02-05T10:29:29.851Z,3.33
2023-02-05T10:34:50.033Z,3.25
2023-02-05T10:39:58.363Z,3.05
2023-02-05T10:45:07.273Z,3.67
2023-02-05T10:50:24.355Z,3.45
2023-02-05T10:55:30.127Z,3.47
2023-02-05T11:00:34.618Z,4.03
2023-02-05T11:05:41.260Z,3.35
2023-02-05T11:10:54.335Z,3.60
2023-02-05T11:16:00.379Z,3.53
2023-02-05T11:21:06.057Z,3.13
2023-02-05T11:26:17.869Z,3.10
2023-02-05T11:31:25.637Z,3.45
2023-02-05T11:36:29.453Z,2.90
2023-02-05T11:41:37.482Z,3.00
2023-02-05T11:46:45.862Z,3.38
2023-02-05T11:51:53.511Z,3.28
2023-02-05T11:57:27.938Z,2.80
2023-02-05T12:02:36.414Z,1.80
2023-02-05T12:07:44.939Z,1.00
2023-02-05T12:13:01.591Z,1.10
2023-02-05T12:18:18.750Z,1.27
2023-02-05T12:23:34.555Z,0.98
2023-02-05T12:28:50.950Z,1.40
2023-02-05T12:34:17.832Z,1.20
2023-02-05T12:39:37.442Z,1.17
2023-02-05T12:45:03.189Z,1.10
2023-02-05T12:50:23.233Z,1.50
2023-02-05T12:55:41.120Z,1.90
2023-02-05T13:00:52.438Z,3.08
2023-02-05T13:06:00.660Z,2.83
2023-02-05T13:11:12.522Z,3.92
2023-02-05T13:16:18.978Z,3.25
2023-02-05T13:21:23.407Z,3.15
2023-02-05T13:26:33.094Z,3.90
2023-02-05T13:31:40.666Z,3.22
2023-02-05T13:37:25.480Z,3.67
2023-02-05T13:42:55.200Z,3.38
2023-02-05T13:48:27.704Z,3.90
2023-02-05T13:53:50.583Z,3.60
2023-02-05T13:58:57.610Z,3.15
2023-02-05T14:04:03.357Z,3.15
2023-02-05T14:09:11.687Z,3.00
2023-02-05T14:14:31.024Z,3.40
2023-02-05T14:19:53.246Z,2.90
2023-02-05T14:24:58.528Z,3.30
2023-02-05T14:30:33.888Z,3.60
2023-02-05T14:35:39.062Z,3.03
2023-02-05T14:40:44.475Z,3.30
2023-02-05T14:45:51.744Z,3.40
2023-02-05T14:51:08.084Z,3.05
2023-02-05T14:56:25.779Z,3.00
2023-02-05T15:01:47.397Z,3.15
2023-02-05T15:06:53.138Z,3.08
2023-02-05T15:12:19.298Z,3.33
2023-02-05T15:17:58.739Z,3.27
2023-02-05T15:23:07.132Z,3.30
2023-02-05T15:28:27.869Z,2.78
2023-02-05T15:33:43.876Z,3.20
2023-02-05T15:38:53.408Z,3.17
2023-02-05T15:44:03.899Z,2.65
2023-02-05T15:49:08.884Z,2.40
2023-02-05T15:54:19.696Z,2.20
2023-02-05T15:59:28.389Z,2.95
2023-02-05T16:04:34.807Z,3.28
2023-02-05T16:09:38.482Z,3.03
2023-02-05T16:14:43.791Z,2.92
2023-02-05T16:19:50.784Z,3.63
2023-02-05T16:24:59.604Z,3.40
2023-02-05T16:30:08.510Z,3.50
2023-02-05T16:35:23.128Z,3.05
2023-02-05T16:40:34.471Z,2.92
2023-02-05T16:45:39.949Z,2.67
2023-02-05T16:50:44.959Z,2.37
2023-02-05T16:55:49.581Z,2.35
2023-02-05T17:01:00.454Z,2.35
2023-02-05T17:06:13.589Z,2.10
2023-02-05T17:11:36.546Z,2.92
2023-02-05T17:16:43.273Z,2.40
2023-02-05T17:21:46.922Z,3.20
2023-02-05T17:26:50.558Z,2.80
2023-02-05T17:31:55.906Z,2.70
2023-02-05T17:36:59.657Z,2.67
2023-02-05T17:42:03.326Z,3.05
2023-02-05T17:47:12.562Z,2.58
2023-02-05T17:52:16.547Z,3.08
2023-02-05T17:57:22.077Z,3.08
2023-02-05T18:02:27.789Z,3.43
2023-02-05T18:07:33.914Z,3.22
2023-02-05T18:12:37.547Z,3.97
2023-02-05T18:17:42.886Z,3.35
2023-02-05T18:22:46.511Z,2.80
2023-02-05T18:27:50.196Z,2.55
2023-02-05T18:32:56.589Z,2.88
2023-02-05T18:38:00.200Z,2.97
2023-02-05T18:43:03.813Z,2.85
2023-02-05T18:48:09.084Z,3.17
2023-02-05T18:53:12.740Z,3.07
2023-02-05T18:58:16.363Z,2.55
2023-02-05T19:03:21.661Z,2.00
2023-02-05T19:08:25.335Z,1.93
2023-02-05T19:13:28.998Z,2.20
2023-02-05T19:18:35.224Z,2.08
2023-02-05T19:23:39.329Z,2.00
2023-02-05T19:28:44.068Z,2.00
2023-02-05T19:33:49.372Z,2.20
2023-02-05T19:38:53.016Z,2.10
2023-02-05T19:43:57.949Z,2.40
2023-02-05T19:49:04.926Z,2.75
2023-02-05T19:54:08.636Z,2.50
2023-02-05T19:59:12.791Z,2.30
2023-02-05T20:04:18.942Z,2.55
2023-02-05T20:09:22.575Z,2.15
2023-02-05T20:14:26.246Z,2.50
2023-02-05T20:19:31.558Z,3.20
2023-02-05T20:24:35.266Z,2.53
2023-02-05T20:29:39.015Z,2.50
2023-02-05T20:34:44.288Z,2.33
2023-02-05T20:39:48.167Z,2.13
2023-02-05T20:44:51.774Z,2.50
2023-02-05T20:49:57.024Z,2.00
2023-02-05T20:55:00.678Z,2.40
2023-02-05T21:00:04.671Z,2.15
2023-02-05T21:05:11.698Z,2.33
2023-02-05T21:10:15.360Z,2.10
2023-02-05T21:15:19.087Z,2.15
2023-02-05T21:20:24.341Z,2.25
2023-02-05T21:25:28.345Z,2.10
2023-02-05T21:30:31.986Z,1.98
2023-02-05T21:35:40.334Z,2.40
2023-02-05T21:40:43.982Z,2.38
2023-02-05T21:45:47.648Z,1.73
2023-02-05T21:50:52.925Z,2.20
2023-02-05T21:55:56.548Z,1.93
2023-02-05T22:01:10.959Z,1.15
2023-02-05T22:06:16.274Z,1.70
2023-02-05T22:11:21.759Z,1.50
2023-02-05T22:16:26.534Z,1.33
2023-02-05T22:21:33.346Z,0.77
2023-02-05T22:26:38.730Z,1.02
2023-02-05T22:31:42.911Z,0.70
2023-02-05T22:36:48.344Z,0.50
2023-02-05T22:41:51.989Z,1.17
2023-02-05T22:46:55.665Z,1.10
2023-02-05T22:52:00.929Z,1.20
2023-02-05T22:57:04.582Z,1.10
2023-02-05T23:02:08.241Z,1.10
2023-02-05T23:07:13.490Z,1.00
2023-02-05T23:12:17.119Z,0.87
2023-02-05T23:17:21.356Z,1.23
2023-02-05T23:22:26.674Z,1.20
2023-02-05T23:27:32.367Z,0.93
2023-02-05T23:32:35.965Z,1.23
2023-02-05T23:37:42.098Z,1.27
2023-02-05T23:47:48.551Z,0.70
2023-02-05T23:52:53.843Z,0.75
2023-02-05T23:57:57.501Z,0.80
